Time,TemperatureF,DewpointF,PressureIn,WindDirection,WindDirectionDegrees,WindSpeedMPH,WindSpeedGustMPH,Humidity,HourlyPrecipIn,Conditions,Clouds,dailyrainin,SoftwareType,DateUTC
2013-08-08 00:00:00,71.5,70.9,29.96,WSW,242,0.0,1.0,98,0.00,RA,,0.00,WeatherDisplay:10.37,2013-08-08 04:00:00,
2013-08-08 01:00:00,71.0,70.4,29.95,WSW,242,0.0,1.0,98,0.00,OVC,,0.00,WeatherDisplay:10.37,2013-08-08 05:00:00,
2013-08-08 02:00:00,70.9,70.3,29.94,WSW,242,0.0,0.0,98,0.00,OVC,,0.00,WeatherDisplay:10.37,2013-08-08 06:00:00,
2013-08-08 03:00:00,70.2,69.9,29.94,WSW,242,0.0,1.0,99,0.00,OVC,,0.00,WeatherDisplay:10.37,2013-08-08 07:00:00,
2013-08-08 04:00:00,69.8,69.5,29.93,WSW,242,0.0,0.0,99,0.00,BKN,,0.00,WeatherDisplay:10.37,2013-08-08 08:00:00,
2013-08-08 05:00:00,68.8,68.5,29.93,WSW,242,0.0,0.0,99,0.00,OVC,,0.00,WeatherDisplay:10.37,2013-08-08 09:00:00,
2013-08-08 06:00:00,69.0,68.7,29.92,WSW,242,0.0,0.0,99,0.00,BKN,,0.00,WeatherDisplay:10.37,2013-08-08 10:00:00,
2013-08-08 07:00:00,68.8,68.5,29.93,WSW,242,0.0,0.0,99,0.00,OVC,,0.00,WeatherDisplay:10.37,2013-08-08 11:00:00,
2013-08-08 08:00:00,69.9,69.6,29.94,WSW,242,0.0,1.0,99,0.00,OVC,,0.00,WeatherDisplay:10.37,2013-08-08 12:00:00,
2013-08-08 09:00:00,71.3,70.4,29.96,WSW,242,0.0,1.0,97,0.00,OVC,,0.00,WeatherDisplay:10.37,2013-08-08 13:00:00,
2013-08-08 10:00:00,71.8,70.9,29.96,WSW,244,0.0,2.0,97,0.00,OVC,,0.00,WeatherDisplay:10.37,2013-08-08 14:00:00,
2013-08-08 11:00:00,73.4,71.9,29.98,WSW,244,0.0,1.0,95,0.00,OVC,,0.00,WeatherDisplay:10.37,2013-08-08 15:00:00,
2013-08-08 12:00:00,76.7,73.5,29.98,ENE,69,1.0,2.0,90,0.00,OVC,,0.00,WeatherDisplay:10.37,2013-08-08 16:00:00,
2013-08-08 13:00:00,80.8,75.2,29.97,North,350,0.0,6.0,83,0.00,SCT,,0.00,WeatherDisplay:10.37,2013-08-08 17:00:00,
2013-08-08 14:00:00,80.3,75.0,29.95,SE,133,2.0,8.0,84,0.00,BKN,,0.00,WeatherDisplay:10.37,2013-08-08 18:00:00,
2013-08-08 15:00:00,81.2,74.0,29.93,ESE,102,0.0,5.0,79,0.00,CLR,,0.00,WeatherDisplay:10.37,2013-08-08 19:00:00,
2013-08-08 17:00:00,80.9,75.7,29.91,NE,54,0.0,2.0,84,0.00,CLR,,0.00,WeatherDisplay:10.37,2013-08-08 21:00:00,
2013-08-08 20:00:00,72.4,71.8,29.95,WNW,282,0.0,1.0,98,0.00,BKN,,0.01,WeatherDisplay:10.37,2013-08-09 00:00:00,
2013-08-08 22:00:00,69.2,68.9,29.95,NNE,32,0.0,1.0,99,0.23,RA,,0.24,WeatherDisplay:10.37,2013-08-09 02:00:00,
2013-08-08 23:00:00,69.0,68.7,29.97,NNE,32,0.0,0.0,99,0.29,-RA,,0.53,WeatherDisplay:10.37,2013-08-09 03:00:00,